Memphis, Nebraska
Current Conditions -  °F | °C
As of 8:15 AM on Wednesday 28 Jan 2015 (Local Time) from KAHQ Reporting Station
Clear Clear  
Wind Chill: 23°   Ceiling: Unl
Heat Index: 30°   Visibility: 7mi
Dew Point: 27°   Wind: 7mph
Humidity: 90%   Direction: 130°SE
Pressure: 29.83"   Gusts: NA
Location:  41.1°N, 96.43°W
Report Text: KAHQ 281415Z AUTO 13006KT 7SM CLR M01/M03 A2983 RMK AO2 T10131028
Loading
Personal Weather Stations






























Interactive Weather Map New forecast layout! Learn more

10-Day Weather Forecast

Advertisements
Track Severe Weather on mobile